Time;durP1;ratioP1;P1;durP2;ratioP2;P2;SDS_P1;SDS_P2;PMS_P1;PMS_P2;Temp;Humidity;BMP_temperature;BMP_pressure;BME280_temperature;BME280_humidity;BME280_pressure;Samples;Min_cycle;Max_cycle;Signal;HPM_P1;HPM_P2
2023/06/06 00:00:35;;;;;;;5.00;2.80;;;;;;;;;;5049875;28;20458;-84
2023/06/06 00:03:00;;;;;;;4.07;2.72;;;;;;;;;;5032399;28;20037;-84
2023/06/06 00:05:27;;;;;;;4.43;2.60;;;;;;;;;;5052246;28;20045;-85
2023/06/06 00:07:53;;;;;;;4.88;2.70;;;;;;;;;;5049935;28;20042;-85
2023/06/06 00:10:19;;;;;;;4.68;3.20;;;;;;;;;;5045974;28;20048;-84
2023/06/06 00:12:52;;;;;;;6.72;3.78;;;;;;;;;;5049243;28;20056;-84
2023/06/06 00:15:19;;;;;;;5.38;3.50;;;;;;;;;;5041742;28;20052;-81
2023/06/06 00:17:45;;;;;;;6.60;3.65;;;;;;;;;;5057541;28;20036;-83
2023/06/06 00:20:12;;;;;;;4.03;3.63;;;;;;;;;;5037581;28;20029;-83
2023/06/06 00:22:39;;;;;;;4.15;3.75;;;;;;;;;;5052502;28;20108;-84
2023/06/06 00:25:05;;;;;;;4.80;4.20;;;;;;;;;;5031068;28;20045;-84
2023/06/06 00:27:34;;;;;;;6.93;4.70;;;;;;;;;;5031935;28;20110;-84
2023/06/06 00:30:00;;;;;;;4.80;4.30;;;;;;;;;;5024574;28;20041;-84
2023/06/06 00:32:26;;;;;;;4.85;3.40;;;;;;;;;;5031337;28;20060;-83
2023/06/06 00:34:54;;;;;;;3.47;2.90;;;;;;;;;;5031101;28;20030;-83
2023/06/06 00:37:19;;;;;;;4.15;3.28;;;;;;;;;;5030358;28;20032;-83
2023/06/06 00:39:46;;;;;;;3.63;3.00;;;;;;;;;;5014679;28;20071;-83
2023/06/06 00:42:12;;;;;;;3.53;2.90;;;;;;;;;;5015649;28;20026;-82
2023/06/06 00:44:37;;;;;;;4.35;3.42;;;;;;;;;;5028770;28;20029;-83
2023/06/06 00:47:03;;;;;;;5.00;4.40;;;;;;;;;;5027047;28;20048;-83
2023/06/06 00:49:29;;;;;;;8.32;4.13;;;;;;;;;;5023551;28;20029;-83
2023/06/06 00:51:55;;;;;;;5.78;3.47;;;;;;;;;;5021186;28;20033;-83
2023/06/06 00:54:21;;;;;;;5.32;3.38;;;;;;;;;;5018216;28;20035;-81
2023/06/06 00:56:50;;;;;;;5.38;3.63;;;;;;;;;;5029444;28;20039;-83
2023/06/06 00:59:16;;;;;;;6.28;4.20;;;;;;;;;;5030802;28;20037;-82
2023/06/06 01:01:43;;;;;;;6.30;4.55;;;;;;;;;;5015337;28;20057;-83
2023/06/06 01:04:12;;;;;;;7.60;3.80;;;;;;;;;;5039281;28;20029;-83
2023/06/06 01:06:38;;;;;;;4.68;4.10;;;;;;;;;;5028906;28;20037;-83
2023/06/06 01:09:05;;;;;;;6.10;4.43;;;;;;;;;;5048449;28;20045;-83
2023/06/06 01:11:36;;;;;;;6.68;4.63;;;;;;;;;;5032798;28;20037;-82
2023/06/06 01:14:19;;;;;;;7.63;4.70;;;;;;;;;;5014366;28;20048;-82
2023/06/06 01:16:49;;;;;;;5.18;3.90;;;;;;;;;;5015106;28;20068;-83
2023/06/06 01:19:19;;;;;;;6.30;4.38;;;;;;;;;;5028070;28;20053;-82
2023/06/06 01:21:46;;;;;;;5.90;4.00;;;;;;;;;;5013997;28;20029;-83
2023/06/06 01:24:13;;;;;;;6.20;3.78;;;;;;;;;;5018528;28;20029;-84
2023/06/06 01:26:38;;;;;;;5.38;4.07;;;;;;;;;;5018634;28;20025;-84
2023/06/06 01:29:04;;;;;;;5.88;3.58;;;;;;;;;;5031934;28;20075;-85
2023/06/06 01:31:36;;;;;;;4.45;3.33;;;;;;;;;;5030178;28;20120;-85
2023/06/06 01:34:08;;;;;;;4.28;3.35;;;;;;;;;;5014255;28;20033;-85
2023/06/06 01:36:45;;;;;;;8.23;4.18;;;;;;;;;;5025030;28;20051;-85
2023/06/06 01:39:17;;;;;;;6.20;4.13;;;;;;;;;;5022056;28;20040;-84
2023/06/06 01:41:45;;;;;;;8.00;4.10;;;;;;;;;;5019543;28;20030;-83
2023/06/06 01:44:15;;;;;;;4.68;3.80;;;;;;;;;;5013596;28;20071;-83
2023/06/06 01:46:41;;;;;;;4.95;3.50;;;;;;;;;;5030131;28;20037;-82
2023/06/06 01:49:08;;;;;;;5.25;3.75;;;;;;;;;;5030548;28;20047;-81
2023/06/06 01:51:34;;;;;;;8.20;4.00;;;;;;;;;;5023920;28;20108;-84
2023/06/06 01:54:00;;;;;;;4.90;3.58;;;;;;;;;;5024737;28;20048;-84
2023/06/06 01:56:27;;;;;;;7.35;3.50;;;;;;;;;;5039365;28;20033;-84
2023/06/06 01:58:53;;;;;;;6.32;3.47;;;;;;;;;;5017348;28;20803;-84
2023/06/06 02:01:20;;;;;;;3.75;3.10;;;;;;;;;;5032585;28;20104;-83
2023/06/06 02:03:46;;;;;;;5.47;3.17;;;;;;;;;;5026881;28;20061;-82
2023/06/06 02:06:14;;;;;;;3.90;3.17;;;;;;;;;;5030884;28;20108;-83
2023/06/06 02:08:40;;;;;;;4.30;3.60;;;;;;;;;;5013817;28;20048;-83
2023/06/06 02:11:07;;;;;;;5.38;3.30;;;;;;;;;;5023453;28;20534;-83
2023/06/06 02:13:32;;;;;;;7.07;3.50;;;;;;;;;;5020083;28;20067;-83
2023/06/06 02:15:58;;;;;;;5.57;3.17;;;;;;;;;;5017123;28;20060;-84
2023/06/06 02:18:23;;;;;;;4.43;3.20;;;;;;;;;;5014753;28;20095;-84
2023/06/06 02:20:50;;;;;;;7.30;3.60;;;;;;;;;;5047466;28;20033;-83
2023/06/06 02:23:18;;;;;;;4.22;3.15;;;;;;;;;;5013464;28;20052;-84
2023/06/06 02:25:44;;;;;;;3.95;3.25;;;;;;;;;;5040920;28;20109;-82
2023/06/06 02:28:14;;;;;;;4.85;3.08;;;;;;;;;;5014320;28;20041;-82
2023/06/06 02:30:40;;;;;;;4.50;3.10;;;;;;;;;;5013378;28;20399;-83
2023/06/06 02:33:07;;;;;;;6.07;3.17;;;;;;;;;;5030146;28;20072;-84
2023/06/06 02:35:34;;;;;;;3.95;3.03;;;;;;;;;;5041522;28;20033;-83
2023/06/06 02:37:59;;;;;;;5.53;3.33;;;;;;;;;;5064554;28;20040;-84
2023/06/06 02:40:25;;;;;;;4.32;3.55;;;;;;;;;;5044150;28;20509;-81
2023/06/06 02:42:51;;;;;;;6.65;3.65;;;;;;;;;;5042281;28;20093;-82
2023/06/06 02:45:17;;;;;;;4.03;3.22;;;;;;;;;;5037905;28;20033;-83
2023/06/06 02:47:43;;;;;;;6.47;3.33;;;;;;;;;;5036133;28;20044;-82
2023/06/06 02:50:10;;;;;;;4.57;3.28;;;;;;;;;;5032700;28;20036;-83
2023/06/06 02:52:38;;;;;;;6.03;3.42;;;;;;;;;;5012093;28;20044;-83
2023/06/06 02:55:04;;;;;;;4.22;3.78;;;;;;;;;;5029478;28;20519;-83
2023/06/06 02:57:30;;;;;;;5.88;3.60;;;;;;;;;;5031346;28;20038;-83
2023/06/06 02:59:58;;;;;;;5.70;3.80;;;;;;;;;;5041547;28;20033;-82
2023/06/06 03:02:24;;;;;;;4.20;3.65;;;;;;;;;;5042200;28;20064;-82
2023/06/06 03:04:50;;;;;;;6.95;3.60;;;;;;;;;;5021439;28;20033;-82
2023/06/06 03:07:16;;;;;;;4.53;3.58;;;;;;;;;;5035486;28;20037;-82
2023/06/06 03:09:42;;;;;;;9.23;4.00;;;;;;;;;;5033617;28;20042;-82
2023/06/06 03:12:13;;;;;;;7.25;3.42;;;;;;;;;;5047759;28;20033;-83
2023/06/06 03:14:38;;;;;;;4.82;3.97;;;;;;;;;;5029923;28;20092;-83
2023/06/06 03:17:06;;;;;;;7.53;3.63;;;;;;;;;;5033723;28;20041;-83
2023/06/06 03:19:33;;;;;;;4.65;3.10;;;;;;;;;;5036069;28;20030;-82
2023/06/06 03:22:00;;;;;;;5.18;3.63;;;;;;;;;;5020265;28;20037;-83
2023/06/06 03:24:29;;;;;;;3.78;3.38;;;;;;;;;;5018212;28;20057;-82
2023/06/06 03:26:56;;;;;;;5.22;3.08;;;;;;;;;;5033084;28;20061;-83
2023/06/06 03:29:22;;;;;;;4.55;3.53;;;;;;;;;;5033453;28;20511;-83
2023/06/06 03:31:50;;;;;;;6.18;3.30;;;;;;;;;;5033866;28;20033;-84
2023/06/06 03:34:17;;;;;;;6.00;3.72;;;;;;;;;;5039267;28;20040;-83
2023/06/06 03:36:44;;;;;;;6.13;3.72;;;;;;;;;;5038185;28;20045;-83
2023/06/06 03:39:10;;;;;;;6.57;3.45;;;;;;;;;;5033766;28;20030;-82
2023/06/06 03:41:36;;;;;;;3.75;3.28;;;;;;;;;;5032521;28;20039;-83
2023/06/06 03:44:03;;;;;;;4.88;3.60;;;;;;;;;;5013410;28;20060;-81
2023/06/06 03:46:28;;;;;;;4.25;3.50;;;;;;;;;;5036070;28;20025;-82
2023/06/06 03:48:56;;;;;;;5.82;3.53;;;;;;;;;;5031882;28;20163;-81
2023/06/06 03:51:21;;;;;;;6.43;4.07;;;;;;;;;;5014455;28;20029;-82
2023/06/06 03:53:47;;;;;;;6.85;4.05;;;;;;;;;;5012061;28;20087;-85
2023/06/06 03:56:13;;;;;;;9.32;5.57;;;;;;;;;;5014320;28;20124;-84
2023/06/06 03:58:38;;;;;;;7.60;5.13;;;;;;;;;;5031584;28;20045;-84
2023/06/06 04:01:04;;;;;;;5.97;4.20;;;;;;;;;;5039785;28;20048;-84
2023/06/06 04:03:36;;;;;;;7.15;3.97;;;;;;;;;;5040779;28;20390;-84
2023/06/06 04:06:06;;;;;;;5.03;3.75;;;;;;;;;;5048568;28;20044;-82
2023/06/06 04:08:32;;;;;;;6.35;3.63;;;;;;;;;;5032093;28;20037;-84
2023/06/06 04:10:58;;;;;;;4.88;3.78;;;;;;;;;;5036650;28;20032;-82
2023/06/06 04:13:25;;;;;;;5.32;3.60;;;;;;;;;;5049938;28;20041;-85
2023/06/06 04:15:50;;;;;;;7.13;3.65;;;;;;;;;;5029329;28;20049;-83
2023/06/06 04:18:16;;;;;;;5.35;3.70;;;;;;;;;;5042198;28;20033;-83
2023/06/06 04:20:44;;;;;;;5.78;3.83;;;;;;;;;;5039514;28;20029;-84
2023/06/06 04:23:10;;;;;;;5.85;4.00;;;;;;;;;;5036436;28;20034;-83
2023/06/06 04:25:35;;;;;;;5.82;3.85;;;;;;;;;;5033902;28;20033;-83
2023/06/06 04:28:01;;;;;;;4.80;4.10;;;;;;;;;;5040386;28;20035;-84
2023/06/06 04:30:29;;;;;;;7.10;4.40;;;;;;;;;;5031105;28;20037;-83
2023/06/06 04:32:56;;;;;;;7.32;3.95;;;;;;;;;;5044448;28;20056;-83
2023/06/06 04:35:23;;;;;;;5.57;4.10;;;;;;;;;;5059028;28;20063;-83
2023/06/06 04:37:50;;;;;;;6.88;4.57;;;;;;;;;;5038857;28;20069;-82
2023/06/06 04:40:21;;;;;;;7.40;4.55;;;;;;;;;;5019238;28;20064;-83
2023/06/06 04:42:47;;;;;;;7.18;5.20;;;;;;;;;;5016224;28;20092;-83
2023/06/06 04:45:15;;;;;;;7.78;5.15;;;;;;;;;;5014846;28;20044;-83
2023/06/06 04:47:44;;;;;;;6.13;4.10;;;;;;;;;;5028935;28;20034;-83
2023/06/06 04:50:10;;;;;;;5.60;3.97;;;;;;;;;;5031269;28;20049;-82
2023/06/06 04:52:36;;;;;;;4.75;3.72;;;;;;;;;;5037178;28;20032;-83
2023/06/06 04:55:03;;;;;;;5.88;4.18;;;;;;;;;;5036055;28;20051;-83
2023/06/06 04:57:28;;;;;;;7.53;3.75;;;;;;;;;;5051301;28;20483;-83
2023/06/06 04:59:54;;;;;;;5.05;4.10;;;;;;;;;;5048422;28;20048;-82
2023/06/06 05:02:28;;;;;;;4.97;3.50;;;;;;;;;;5048768;28;20087;-83
2023/06/06 05:04:58;;;;;;;5.07;4.03;;;;;;;;;;5043202;28;20471;-82
2023/06/06 05:07:24;;;;;;;5.82;4.00;;;;;;;;;;5060228;28;20041;-83
2023/06/06 05:09:53;;;;;;;5.95;3.97;;;;;;;;;;5056462;28;20057;-83
2023/06/06 05:12:25;;;;;;;6.80;3.90;;;;;;;;;;5053076;28;20037;-84
2023/06/06 05:14:51;;;;;;;5.13;4.10;;;;;;;;;;5030403;28;20061;-83
2023/06/06 05:17:18;;;;;;;7.22;3.80;;;;;;;;;;5063911;28;20041;-83
2023/06/06 05:19:45;;;;;;;5.72;4.05;;;;;;;;;;5064102;28;20124;-83
2023/06/06 05:22:10;;;;;;;7.45;4.00;;;;;;;;;;5025693;28;20039;-82
2023/06/06 05:24:36;;;;;;;6.88;3.70;;;;;;;;;;5054671;28;20382;-81
2023/06/06 05:27:01;;;;;;;5.65;4.30;;;;;;;;;;5032789;28;20044;-82
2023/06/06 05:29:30;;;;;;;5.28;4.28;;;;;;;;;;5028702;28;20040;-80
2023/06/06 05:31:56;;;;;;;7.07;4.13;;;;;;;;;;5039455;28;20037;-83
2023/06/06 05:34:21;;;;;;;4.90;4.03;;;;;;;;;;5039894;28;20033;-83
2023/06/06 05:36:47;;;;;;;5.07;3.97;;;;;;;;;;5053700;28;20135;-83
2023/06/06 05:39:12;;;;;;;5.70;3.88;;;;;;;;;;5049717;28;20037;-83
2023/06/06 05:41:37;;;;;;;4.55;3.75;;;;;;;;;;5041214;28;20033;-81
2023/06/06 05:44:03;;;;;;;6.00;3.97;;;;;;;;;;5043232;28;20029;-81
2023/06/06 05:46:28;;;;;;;5.00;3.80;;;;;;;;;;5025626;28;20029;-82
2023/06/06 05:48:54;;;;;;;5.22;3.67;;;;;;;;;;5026700;28;20037;-83
2023/06/06 05:51:20;;;;;;;5.65;3.60;;;;;;;;;;5043837;28;20041;-83
2023/06/06 05:53:46;;;;;;;5.68;3.70;;;;;;;;;;5026037;28;20120;-82
2023/06/06 05:56:12;;;;;;;5.15;3.88;;;;;;;;;;5029478;28;20028;-80
2023/06/06 05:58:39;;;;;;;4.43;3.70;;;;;;;;;;5040677;28;20119;-81
2023/06/06 06:01:05;;;;;;;6.35;3.75;;;;;;;;;;5040764;28;20080;-81
2023/06/06 06:03:32;;;;;;;6.78;4.05;;;;;;;;;;5044184;28;20100;-80
2023/06/06 06:06:02;;;;;;;8.70;3.95;;;;;;;;;;5030619;28;20087;-82
2023/06/06 06:08:29;;;;;;;4.80;3.70;;;;;;;;;;5046986;28;20059;-83
2023/06/06 06:10:55;;;;;;;4.68;3.50;;;;;;;;;;5059243;28;20096;-84
2023/06/06 06:13:21;;;;;;;7.10;4.00;;;;;;;;;;5037440;28;20037;-84
2023/06/06 06:15:46;;;;;;;5.25;3.70;;;;;;;;;;5048259;28;20044;-81
2023/06/06 06:18:12;;;;;;;5.57;3.75;;;;;;;;;;5026832;28;20107;-80
2023/06/06 06:20:37;;;;;;;8.43;3.85;;;;;;;;;;5029777;28;20038;-81
2023/06/06 06:23:03;;;;;;;5.18;3.28;;;;;;;;;;5059312;28;20044;-81
2023/06/06 06:25:28;;;;;;;4.80;3.70;;;;;;;;;;5032477;28;20036;-81
2023/06/06 06:27:55;;;;;;;5.47;4.05;;;;;;;;;;5047044;28;20194;-81
2023/06/06 06:30:21;;;;;;;5.45;4.00;;;;;;;;;;5043664;28;20033;-83
2023/06/06 06:32:47;;;;;;;8.20;4.80;;;;;;;;;;5023116;28;20028;-81
2023/06/06 06:35:12;;;;;;;5.25;4.60;;;;;;;;;;5042162;28;20100;-81
2023/06/06 06:37:39;;;;;;;7.65;4.47;;;;;;;;;;5043519;28;20037;-81
2023/06/06 06:40:09;;;;;;;5.57;4.40;;;;;;;;;;5007493;28;20128;-80
2023/06/06 06:42:40;;;;;;;6.13;4.35;;;;;;;;;;5041285;28;20037;-81
2023/06/06 06:45:19;;;;;;;6.13;4.53;;;;;;;;;;5019664;28;20757;-80
2023/06/06 06:47:45;;;;;;;8.63;5.13;;;;;;;;;;5026025;28;20124;-81
2023/06/06 06:50:11;;;;;;;7.57;5.68;;;;;;;;;;5041999;28;20068;-81
2023/06/06 06:52:37;;;;;;;8.45;5.55;;;;;;;;;;5041026;28;20037;-82
2023/06/06 06:55:07;;;;;;;6.30;5.32;;;;;;;;;;5027594;28;20041;-83
2023/06/06 06:57:33;;;;;;;6.97;5.63;;;;;;;;;;5048909;28;20087;-82
2023/06/06 07:00:11;;;;;;;6.18;5.20;;;;;;;;;;5048393;28;20047;-81
2023/06/06 07:02:39;;;;;;;6.40;5.57;;;;;;;;;;5024880;28;20073;-83
2023/06/06 07:05:06;;;;;;;8.00;5.65;;;;;;;;;;5027765;28;20060;-81
2023/06/06 07:07:31;;;;;;;12.93;5.72;;;;;;;;;;5057372;28;20029;-82
2023/06/06 07:09:57;;;;;;;7.85;5.40;;;;;;;;;;5055597;28;20051;-81
2023/06/06 07:12:22;;;;;;;7.63;5.68;;;;;;;;;;5054288;28;20028;-82
2023/06/06 07:14:48;;;;;;;7.45;6.18;;;;;;;;;;5048828;28;20043;-81
2023/06/06 07:17:15;;;;;;;7.85;6.30;;;;;;;;;;5027689;28;20052;-80
2023/06/06 07:19:42;;;;;;;9.77;6.60;;;;;;;;;;5043533;28;20060;-83
2023/06/06 07:22:08;;;;;;;9.45;6.50;;;;;;;;;;5021664;28;20036;-83
2023/06/06 07:24:34;;;;;;;11.68;6.22;;;;;;;;;;5017339;28;20045;-81
2023/06/06 07:26:59;;;;;;;10.13;7.38;;;;;;;;;;5050289;28;20029;-81
2023/06/06 07:29:27;;;;;;;12.48;7.75;;;;;;;;;;5013699;28;20041;-82
2023/06/06 07:31:56;;;;;;;10.98;8.13;;;;;;;;;;5047481;28;20092;-84
2023/06/06 07:34:22;;;;;;;9.05;7.65;;;;;;;;;;5057323;28;20059;-82
2023/06/06 07:36:48;;;;;;;10.45;7.90;;;;;;;;;;5059612;28;20036;-82
2023/06/06 07:39:14;;;;;;;11.80;7.88;;;;;;;;;;5059720;28;20105;-82
2023/06/06 07:41:40;;;;;;;11.32;7.55;;;;;;;;;;5038773;28;20491;-82
2023/06/06 07:44:05;;;;;;;10.13;7.70;;;;;;;;;;5035916;28;20506;-82
2023/06/06 07:46:31;;;;;;;9.35;7.25;;;;;;;;;;5051355;28;20130;-81
2023/06/06 07:48:58;;;;;;;9.68;7.00;;;;;;;;;;5030408;28;20609;-82
2023/06/06 07:51:23;;;;;;;12.40;7.15;;;;;;;;;;5026792;28;20073;-83
2023/06/06 07:53:50;;;;;;;9.05;6.75;;;;;;;;;;5043788;28;20036;-81
2023/06/06 07:56:16;;;;;;;8.45;6.72;;;;;;;;;;5048335;28;20272;-83
2023/06/06 07:58:46;;;;;;;10.10;6.18;;;;;;;;;;5046757;28;20064;-83
2023/06/06 08:01:12;;;;;;;9.07;6.88;;;;;;;;;;5025043;28;20507;-81
2023/06/06 08:03:38;;;;;;;7.88;6.25;;;;;;;;;;5045811;28;20033;-82
2023/06/06 08:06:04;;;;;;;9.38;6.53;;;;;;;;;;5043891;28;20075;-82
2023/06/06 08:08:29;;;;;;;8.52;6.70;;;;;;;;;;5062785;28;20110;-82
2023/06/06 08:10:55;;;;;;;8.13;5.50;;;;;;;;;;5040878;28;20041;-83
2023/06/06 08:13:21;;;;;;;7.80;6.13;;;;;;;;;;5056788;28;20075;-83
2023/06/06 08:15:46;;;;;;;8.98;6.20;;;;;;;;;;5056589;28;20040;-82
2023/06/06 08:18:16;;;;;;;8.00;6.18;;;;;;;;;;5034489;28;20479;-82
2023/06/06 08:20:41;;;;;;;8.38;6.30;;;;;;;;;;5050668;28;20052;-81
2023/06/06 08:23:07;;;;;;;8.63;5.85;;;;;;;;;;5030157;28;20454;-82
2023/06/06 08:25:33;;;;;;;8.18;6.45;;;;;;;;;;5042831;28;20088;-84
2023/06/06 08:27:59;;;;;;;8.43;6.28;;;;;;;;;;5047665;28;20029;-82
2023/06/06 08:30:24;;;;;;;9.02;6.40;;;;;;;;;;5028925;28;20034;-82
2023/06/06 08:32:50;;;;;;;9.60;6.60;;;;;;;;;;5017212;28;20037;-82
2023/06/06 08:35:18;;;;;;;10.20;6.20;;;;;;;;;;5051914;28;20092;-84
2023/06/06 08:37:44;;;;;;;7.55;6.55;;;;;;;;;;5027871;28;20048;-82
2023/06/06 08:40:11;;;;;;;8.52;6.85;;;;;;;;;;5057937;28;20454;-83
2023/06/06 08:42:43;;;;;;;8.18;6.82;;;;;;;;;;5062149;28;20041;-82
2023/06/06 08:45:09;;;;;;;9.48;6.57;;;;;;;;;;5058040;28;20036;-81
2023/06/06 08:47:36;;;;;;;7.50;6.30;;;;;;;;;;5022412;28;20148;-84
2023/06/06 08:50:04;;;;;;;8.77;6.85;;;;;;;;;;5012530;28;20037;-83
2023/06/06 08:52:32;;;;;;;7.85;6.65;;;;;;;;;;5026914;28;20040;-83
2023/06/06 08:54:58;;;;;;;8.65;7.35;;;;;;;;;;5044185;28;20029;-82
2023/06/06 08:57:25;;;;;;;8.25;7.20;;;;;;;;;;5042332;28;20025;-82
2023/06/06 08:59:51;;;;;;;9.13;6.97;;;;;;;;;;5045359;28;20064;-83
2023/06/06 09:02:17;;;;;;;9.18;6.85;;;;;;;;;;5053752;28;20029;-84
2023/06/06 09:04:44;;;;;;;8.45;7.03;;;;;;;;;;5035178;28;20120;-84
2023/06/06 09:07:12;;;;;;;7.25;6.30;;;;;;;;;;5052541;28;20098;-84
2023/06/06 09:09:40;;;;;;;8.70;7.35;;;;;;;;;;5021394;28;20064;-83
2023/06/06 09:12:07;;;;;;;9.13;7.75;;;;;;;;;;5048099;28;20041;-83
2023/06/06 09:14:33;;;;;;;10.82;8.27;;;;;;;;;;5037594;28;20059;-82
2023/06/06 09:17:03;;;;;;;9.98;7.82;;;;;;;;;;5033158;28;20090;-82
2023/06/06 09:19:29;;;;;;;10.40;7.72;;;;;;;;;;5034654;28;20030;-82
2023/06/06 09:21:58;;;;;;;8.18;7.10;;;;;;;;;;5045578;28;20045;-84
2023/06/06 09:24:24;;;;;;;11.10;8.00;;;;;;;;;;5030325;28;20049;-83
2023/06/06 09:26:50;;;;;;;9.73;6.47;;;;;;;;;;5021038;28;20037;-82
2023/06/06 09:29:15;;;;;;;10.18;7.65;;;;;;;;;;5014731;28;20040;-82
2023/06/06 09:31:42;;;;;;;9.52;7.40;;;;;;;;;;5031052;28;20048;-82
2023/06/06 09:34:09;;;;;;;9.18;7.40;;;;;;;;;;5031178;28;20528;-82
2023/06/06 09:36:37;;;;;;;9.30;7.55;;;;;;;;;;5031711;28;20033;-83
2023/06/06 09:39:13;;;;;;;9.35;7.18;;;;;;;;;;5019348;28;20036;-82
2023/06/06 09:41:45;;;;;;;7.32;6.28;;;;;;;;;;5032422;28;20037;-82
2023/06/06 09:44:23;;;;;;;8.48;6.85;;;;;;;;;;5015048;28;20530;-81
2023/06/06 09:46:49;;;;;;;8.85;7.20;;;;;;;;;;5031918;28;20572;-81
2023/06/06 09:49:15;;;;;;;8.18;6.80;;;;;;;;;;5031643;28;20121;-82
2023/06/06 09:51:43;;;;;;;8.75;6.85;;;;;;;;;;5031916;28;20033;-81
2023/06/06 09:54:12;;;;;;;9.77;7.70;;;;;;;;;;5019973;28;20132;-83
2023/06/06 09:56:42;;;;;;;9.43;7.60;;;;;;;;;;5019458;28;20499;-81
2023/06/06 09:59:10;;;;;;;11.60;7.78;;;;;;;;;;5034068;28;20055;-81
2023/06/06 10:01:38;;;;;;;12.93;7.25;;;;;;;;;;5031449;28;20044;-81
2023/06/06 10:04:05;;;;;;;9.07;7.70;;;;;;;;;;5009563;28;20488;-81
2023/06/06 10:06:33;;;;;;;10.80;8.57;;;;;;;;;;5028820;28;20040;-81
2023/06/06 10:09:04;;;;;;;9.80;8.00;;;;;;;;;;5027738;28;20039;-81
2023/06/06 10:11:31;;;;;;;11.95;8.20;;;;;;;;;;5009394;28;20080;-83
2023/06/06 10:13:58;;;;;;;9.57;7.70;;;;;;;;;;5006231;28;20040;-81
2023/06/06 10:16:26;;;;;;;10.88;7.45;;;;;;;;;;5037949;28;20041;-84
2023/06/06 10:18:53;;;;;;;9.30;7.32;;;;;;;;;;5019484;28;20079;-83
2023/06/06 10:21:20;;;;;;;8.93;7.25;;;;;;;;;;5034661;28;20487;-83
2023/06/06 10:23:45;;;;;;;8.43;6.70;;;;;;;;;;5032322;28;20068;-82
2023/06/06 10:26:46;;;;;;;10.38;6.40;;;;;;;;;;5047177;28;20041;-83
2023/06/06 10:29:19;;;;;;;8.95;6.40;;;;;;;;;;5040491;28;20036;-82
2023/06/06 10:31:53;;;;;;;10.35;6.93;;;;;;;;;;5035540;28;20029;-82
2023/06/06 10:34:24;;;;;;;8.02;6.43;;;;;;;;;;5024083;28;20040;-81
2023/06/06 10:36:51;;;;;;;8.02;6.70;;;;;;;;;;5051770;28;20674;-82
2023/06/06 10:39:29;;;;;;;9.10;6.35;;;;;;;;;;5049485;28;20067;-81
2023/06/06 10:42:06;;;;;;;9.13;6.20;;;;;;;;;;5009481;28;20033;-82
2023/06/06 10:44:41;;;;;;;8.82;6.05;;;;;;;;;;5017420;28;20088;-81
2023/06/06 10:47:30;;;;;;;9.02;6.07;;;;;;;;;;5035292;28;20115;-82
2023/06/06 10:50:08;;;;;;;7.45;6.32;;;;;;;;;;5015066;28;20041;-81
2023/06/06 10:52:54;;;;;;;8.23;6.38;;;;;;;;;;5017324;28;20046;-82
2023/06/06 10:55:22;;;;;;;7.88;6.20;;;;;;;;;;5016972;28;20041;-81
2023/06/06 10:58:10;;;;;;;8.38;6.15;;;;;;;;;;5044399;28;20051;-81
2023/06/06 11:00:40;;;;;;;8.05;6.45;;;;;;;;;;5041260;28;20123;-82
2023/06/06 11:03:10;;;;;;;9.38;6.00;;;;;;;;;;5040780;28;20033;-81
2023/06/06 11:06:01;;;;;;;7.60;6.25;;;;;;;;;;5015851;28;20048;-81
2023/06/06 11:08:36;;;;;;;8.52;6.32;;;;;;;;;;5028946;28;20043;-82
2023/06/06 11:11:23;;;;;;;6.10;5.22;;;;;;;;;;5002193;28;20069;-81
2023/06/06 11:13:54;;;;;;;10.52;6.07;;;;;;;;;;5010300;28;20087;-83
2023/06/06 11:16:38;;;;;;;6.55;5.85;;;;;;;;;;5016433;28;20037;-82
2023/06/06 11:19:08;;;;;;;10.85;6.47;;;;;;;;;;5032730;28;20037;-81
2023/06/06 11:21:40;;;;;;;10.18;5.80;;;;;;;;;;5034860;28;20037;-82
2023/06/06 11:24:06;;;;;;;9.00;6.20;;;;;;;;;;5034533;28;20041;-81
2023/06/06 11:26:37;;;;;;;8.63;6.00;;;;;;;;;;5050375;28;20456;-83
2023/06/06 11:29:04;;;;;;;7.60;5.18;;;;;;;;;;5048170;28;20025;-81
2023/06/06 11:31:30;;;;;;;7.80;5.50;;;;;;;;;;5011045;28;20037;-81
2023/06/06 11:34:11;;;;;;;10.23;5.88;;;;;;;;;;5023316;28;20514;-82
2023/06/06 11:36:41;;;;;;;6.60;5.10;;;;;;;;;;5038569;28;20084;-82
2023/06/06 11:39:11;;;;;;;7.18;5.32;;;;;;;;;;5017769;28;20084;-83
2023/06/06 11:41:41;;;;;;;6.70;5.20;;;;;;;;;;5030995;28;20585;-82
2023/06/06 11:44:07;;;;;;;8.25;5.70;;;;;;;;;;5016788;28;20112;-82
2023/06/06 11:46:53;;;;;;;8.20;5.80;;;;;;;;;;5035164;28;20040;-81
2023/06/06 11:49:21;;;;;;;8.02;5.75;;;;;;;;;;5010757;28;20070;-82
2023/06/06 11:52:00;;;;;;;9.20;5.72;;;;;;;;;;5039911;28;20044;-82
2023/06/06 11:54:27;;;;;;;8.85;5.22;;;;;;;;;;5035562;28;20422;-82
2023/06/06 11:56:56;;;;;;;8.00;5.28;;;;;;;;;;5034577;28;20044;-82
2023/06/06 11:59:22;;;;;;;9.02;5.38;;;;;;;;;;5050059;28;20045;-80
2023/06/06 12:01:53;;;;;;;6.63;5.60;;;;;;;;;;5047181;28;20032;-81
2023/06/06 12:04:21;;;;;;;5.30;4.35;;;;;;;;;;5044132;28;20029;-78
2023/06/06 12:06:48;;;;;;;6.80;5.00;;;;;;;;;;5016421;28;20511;-83
2023/06/06 12:09:16;;;;;;;9.13;4.47;;;;;;;;;;5033578;28;20059;-81
2023/06/06 12:12:04;;;;;;;5.32;4.30;;;;;;;;;;5032958;28;20033;-84
2023/06/06 12:14:32;;;;;;;6.45;4.20;;;;;;;;;;5031357;28;20042;-83
2023/06/06 12:17:08;;;;;;;5.30;4.25;;;;;;;;;;5017067;28;20029;-82
2023/06/06 12:19:35;;;;;;;5.25;4.03;;;;;;;;;;5031398;28;20040;-82
2023/06/06 12:22:00;;;;;;;5.00;3.90;;;;;;;;;;5041405;28;20064;-83
2023/06/06 12:24:32;;;;;;;6.32;4.07;;;;;;;;;;5039727;28;20045;-82
2023/06/06 12:27:02;;;;;;;4.00;3.42;;;;;;;;;;5019673;28;20033;-82
2023/06/06 12:29:36;;;;;;;6.22;4.00;;;;;;;;;;5015700;28;20025;-82
2023/06/06 12:32:26;;;;;;;5.32;4.00;;;;;;;;;;5016164;28;20518;-82
2023/06/06 12:35:01;;;;;;;4.45;3.38;;;;;;;;;;4999913;28;20219;-81
2023/06/06 12:37:46;;;;;;;4.63;3.78;;;;;;;;;;4990773;28;20044;-82
2023/06/06 12:40:19;;;;;;;4.50;3.50;;;;;;;;;;5041911;28;20037;-82
2023/06/06 12:42:51;;;;;;;;;;;;;;;;;;5003168;28;20172;-82
2023/06/06 12:45:18;;;;;;;4.78;3.22;;;;;;;;;;5033475;28;20428;-83
2023/06/06 12:47:43;;;;;;;4.53;3.15;;;;;;;;;;5030902;28;20063;-83
2023/06/06 12:50:09;;;;;;;3.95;3.17;;;;;;;;;;5033749;28;20151;-81
2023/06/06 12:52:35;;;;;;;5.53;2.95;;;;;;;;;;5034152;28;20076;-82
2023/06/06 12:55:01;;;;;;;3.80;2.80;;;;;;;;;;5033165;28;20477;-82
2023/06/06 12:57:26;;;;;;;3.83;3.05;;;;;;;;;;5020558;28;20124;-84
2023/06/06 12:59:52;;;;;;;3.35;2.50;;;;;;;;;;5036859;28;20487;-82
2023/06/06 13:02:18;;;;;;;3.55;2.45;;;;;;;;;;5034302;28;20033;-82
2023/06/06 13:04:45;;;;;;;2.85;2.35;;;;;;;;;;5034480;28;20033;-82
2023/06/06 13:07:11;;;;;;;4.07;2.72;;;;;;;;;;5033269;28;20041;-84
2023/06/06 13:09:37;;;;;;;4.28;3.20;;;;;;;;;;5033687;28;20052;-84
2023/06/06 13:12:08;;;;;;;3.78;3.00;;;;;;;;;;5033730;28;20045;-84
2023/06/06 13:14:36;;;;;;;3.60;2.58;;;;;;;;;;4999253;28;20033;-85
2023/06/06 13:17:01;;;;;;;5.03;2.20;;;;;;;;;;5032971;28;20140;-84
2023/06/06 13:19:27;;;;;;;3.38;2.40;;;;;;;;;;5026297;28;20183;-82
2023/06/06 13:21:52;;;;;;;5.28;3.03;;;;;;;;;;5048451;28;20583;-84
2023/06/06 13:24:18;;;;;;;2.92;2.63;;;;;;;;;;5028429;28;20036;-85
2023/06/06 13:26:44;;;;;;;3.88;2.67;;;;;;;;;;5052232;28;20033;-87
2023/06/06 13:29:09;;;;;;;4.28;2.90;;;;;;;;;;5048265;28;20033;-87
2023/06/06 13:31:37;;;;;;;4.78;2.72;;;;;;;;;;5046785;28;20041;-88
2023/06/06 13:34:03;;;;;;;4.00;2.58;;;;;;;;;;5025478;28;20025;-87
2023/06/06 13:36:28;;;;;;;4.85;2.90;;;;;;;;;;5059028;28;20032;-87
2023/06/06 13:38:54;;;;;;;4.88;2.78;;;;;;;;;;5009769;28;20515;-86
2023/06/06 13:41:19;;;;;;;4.38;2.63;;;;;;;;;;5041556;28;20057;-88
2023/06/06 13:43:45;;;;;;;5.10;2.75;;;;;;;;;;5042149;28;20388;-88
2023/06/06 13:46:11;;;;;;;4.65;3.10;;;;;;;;;;5013113;28;20088;-88
2023/06/06 13:48:37;;;;;;;4.30;2.90;;;;;;;;;;5049344;28;20097;-87
2023/06/06 13:51:03;;;;;;;3.53;2.80;;;;;;;;;;5047316;28;20036;-87
2023/06/06 13:53:29;;;;;;;4.90;2.85;;;;;;;;;;5050688;28;20041;-88
2023/06/06 13:55:56;;;;;;;3.83;2.90;;;;;;;;;;5037356;28;20033;-87
2023/06/06 13:58:23;;;;;;;2.95;2.40;;;;;;;;;;5035951;28;20143;-87
2023/06/06 14:00:52;;;;;;;4.65;2.50;;;;;;;;;;5030930;28;20062;-88
2023/06/06 14:03:18;;;;;;;4.18;2.75;;;;;;;;;;5048210;28;20044;-87
2023/06/06 14:05:44;;;;;;;3.30;2.67;;;;;;;;;;5044365;28;20112;-87
2023/06/06 14:08:10;;;;;;;4.00;2.80;;;;;;;;;;5032081;28;20037;-87
2023/06/06 14:10:36;;;;;;;5.13;2.78;;;;;;;;;;5056538;28;20040;-87
2023/06/06 14:13:02;;;;;;;3.38;2.63;;;;;;;;;;5051467;28;20049;-87
2023/06/06 14:15:27;;;;;;;3.20;2.60;;;;;;;;;;5045814;28;20045;-87
2023/06/06 14:17:53;;;;;;;4.18;2.78;;;;;;;;;;5041442;28;20034;-87
2023/06/06 14:20:21;;;;;;;3.55;2.67;;;;;;;;;;5026310;28;20091;-87
2023/06/06 14:22:48;;;;;;;3.88;2.50;;;;;;;;;;5043801;28;20040;-87
2023/06/06 14:25:15;;;;;;;4.22;2.70;;;;;;;;;;5040957;28;20068;-87
2023/06/06 14:27:41;;;;;;;3.35;2.20;;;;;;;;;;5045352;28;20033;-88
2023/06/06 14:30:07;;;;;;;4.30;2.40;;;;;;;;;;5046858;28;20048;-83
2023/06/06 14:32:34;;;;;;;3.78;2.38;;;;;;;;;;5023647;28;20037;-83
2023/06/06 14:35:02;;;;;;;3.83;2.53;;;;;;;;;;5038121;28;20033;-85
2023/06/06 14:37:28;;;;;;;4.57;2.50;;;;;;;;;;5030363;28;20141;-84
2023/06/06 14:39:54;;;;;;;3.30;2.03;;;;;;;;;;5033200;28;20111;-83
2023/06/06 14:42:20;;;;;;;3.53;2.40;;;;;;;;;;5050582;28;20045;-84
2023/06/06 14:44:45;;;;;;;7.35;2.47;;;;;;;;;;5029035;28;20044;-83
2023/06/06 14:47:11;;;;;;;3.30;2.30;;;;;;;;;;5025787;28;20033;-84